In Rescue
 
Open Full Screen Window  High Contrast Mode
Wind Gusting 00 knots
05
August 08, 2020 5:45 AM CDT
Weather Information
Wind Direction
  160 °
Wind Speed
  05 kt (6 mph)
Wind Gust
  00 kt (0 mph)
Altimeter
29.95 in
Visibility
10 SM
Temperature
21° C
70° F
Dewpoint
20° C
68° F
Humidity
94%
1hr Rain Fall
00.00 in.
24hr Rain Fall
00.06 in.
Sky Condition
Broken @ 5,000 ft
Scattered @ 4,100 ft
Scattered @ 3,500 ft
VFR

METAR KACQ 081045Z AUTO 16005KT 10SM SCT035 SCT041 BKN050 21/20 A2995 RMK AO2 PWINO

FAA Disclaimer: The data displayed is for advisory purposes only and is not to be used for flight planning or operations.